sensor_id;sensor_type;location;lat;lon;timestamp;temperature;humidity
11112;DHT22;5609;49.466;8.468;2023-01-10T00:02:23;7.30;99.90
11112;DHT22;5609;49.466;8.468;2023-01-10T00:04:50;7.40;99.90
11112;DHT22;5609;49.466;8.468;2023-01-10T00:07:18;7.40;99.90
11112;DHT22;5609;49.466;8.468;2023-01-10T00:09:45;7.40;99.90
11112;DHT22;5609;49.466;8.468;2023-01-10T00:12:11;7.30;99.90
11112;DHT22;5609;49.466;8.468;2023-01-10T00:14:56;7.40;99.90
11112;DHT22;5609;49.466;8.468;2023-01-10T00:17:23;7.40;99.90
11112;DHT22;5609;49.466;8.468;2023-01-10T00:19:49;7.40;99.90
11112;DHT22;5609;49.466;8.468;2023-01-10T00:22:17;7.40;99.90
11112;DHT22;5609;49.466;8.468;2023-01-10T00:24:49;7.40;99.90
11112;DHT22;5609;49.466;8.468;2023-01-10T00:27:16;7.40;99.90
11112;DHT22;5609;49.466;8.468;2023-01-10T00:29:46;7.40;99.90
11112;DHT22;5609;49.466;8.468;2023-01-10T00:32:15;7.40;99.90
11112;DHT22;5609;49.466;8.468;2023-01-10T00:34:42;7.40;99.90
11112;DHT22;5609;49.466;8.468;2023-01-10T00:37:08;7.40;99.90
11112;DHT22;5609;49.466;8.468;2023-01-10T00:39:37;7.40;99.90
11112;DHT22;5609;49.466;8.468;2023-01-10T00:42:04;7.40;99.90
11112;DHT22;5609;49.466;8.468;2023-01-10T00:44:48;7.40;99.90
11112;DHT22;5609;49.466;8.468;2023-01-10T00:47:15;7.30;99.90
11112;DHT22;5609;49.466;8.468;2023-01-10T00:49:43;7.30;99.90
11112;DHT22;5609;49.466;8.468;2023-01-10T00:52:10;7.30;99.90
11112;DHT22;5609;49.466;8.468;2023-01-10T00:54:38;7.10;99.90
11112;DHT22;5609;49.466;8.468;2023-01-10T00:57:04;7.00;99.90
11112;DHT22;5609;49.466;8.468;2023-01-10T00:59:31;7.00;99.90
11112;DHT22;5609;49.466;8.468;2023-01-10T01:01:58;6.90;99.90
11112;DHT22;5609;49.466;8.468;2023-01-10T01:04:24;6.90;99.90
11112;DHT22;5609;49.466;8.468;2023-01-10T01:06:51;6.90;99.90
11112;DHT22;5609;49.466;8.468;2023-01-10T01:09:18;6.90;99.90
11112;DHT22;5609;49.466;8.468;2023-01-10T01:11:46;6.80;99.90
11112;DHT22;5609;49.466;8.468;2023-01-10T01:14:13;6.80;99.90
11112;DHT22;5609;49.466;8.468;2023-01-10T01:16:40;6.70;99.90
11112;DHT22;5609;49.466;8.468;2023-01-10T01:19:07;6.60;99.90
11112;DHT22;5609;49.466;8.468;2023-01-10T01:21:34;6.60;99.90
11112;DHT22;5609;49.466;8.468;2023-01-10T01:24:00;6.60;99.90
11112;DHT22;5609;49.466;8.468;2023-01-10T01:26:27;6.70;99.90
11112;DHT22;5609;49.466;8.468;2023-01-10T01:28:55;6.60;99.90
11112;DHT22;5609;49.466;8.468;2023-01-10T01:31:22;6.60;99.90
11112;DHT22;5609;49.466;8.468;2023-01-10T01:33:48;6.60;99.90
11112;DHT22;5609;49.466;8.468;2023-01-10T01:36:16;6.70;99.90
11112;DHT22;5609;49.466;8.468;2023-01-10T01:38:42;6.60;99.90
11112;DHT22;5609;49.466;8.468;2023-01-10T01:41:09;6.60;99.90
11112;DHT22;5609;49.466;8.468;2023-01-10T01:44:02;6.60;99.90
11112;DHT22;5609;49.466;8.468;2023-01-10T01:46:32;6.60;99.90
11112;DHT22;5609;49.466;8.468;2023-01-10T01:48:59;6.60;99.90
11112;DHT22;5609;49.466;8.468;2023-01-10T01:51:29;6.60;99.90
11112;DHT22;5609;49.466;8.468;2023-01-10T01:53:58;6.60;99.90
11112;DHT22;5609;49.466;8.468;2023-01-10T01:56:33;6.60;99.90
11112;DHT22;5609;49.466;8.468;2023-01-10T01:59:05;6.60;99.90
11112;DHT22;5609;49.466;8.468;2023-01-10T02:01:33;6.70;99.90
11112;DHT22;5609;49.466;8.468;2023-01-10T02:04:06;6.70;99.90
11112;DHT22;5609;49.466;8.468;2023-01-10T02:06:34;6.70;99.90
11112;DHT22;5609;49.466;8.468;2023-01-10T02:09:06;6.70;99.90
11112;DHT22;5609;49.466;8.468;2023-01-10T02:11:34;6.70;99.90
11112;DHT22;5609;49.466;8.468;2023-01-10T02:14:04;6.70;99.90
11112;DHT22;5609;49.466;8.468;2023-01-10T02:16:32;6.60;99.90
11112;DHT22;5609;49.466;8.468;2023-01-10T02:18:59;6.60;99.90
11112;DHT22;5609;49.466;8.468;2023-01-10T02:21:43;6.60;99.90
11112;DHT22;5609;49.466;8.468;2023-01-10T02:24:39;6.60;99.90
11112;DHT22;5609;49.466;8.468;2023-01-10T02:27:13;6.50;99.90
11112;DHT22;5609;49.466;8.468;2023-01-10T02:30:21;6.60;99.90
11112;DHT22;5609;49.466;8.468;2023-01-10T02:32:58;6.60;99.90
11112;DHT22;5609;49.466;8.468;2023-01-10T02:35:39;6.70;99.90
11112;DHT22;5609;49.466;8.468;2023-01-10T02:38:17;6.60;99.90
11112;DHT22;5609;49.466;8.468;2023-01-10T02:40:51;6.60;99.90
11112;DHT22;5609;49.466;8.468;2023-01-10T02:43:24;6.60;99.90
11112;DHT22;5609;49.466;8.468;2023-01-10T02:45:56;6.50;99.90
11112;DHT22;5609;49.466;8.468;2023-01-10T02:48:25;6.50;99.90
11112;DHT22;5609;49.466;8.468;2023-01-10T02:50:55;6.50;99.90
11112;DHT22;5609;49.466;8.468;2023-01-10T02:53:27;6.60;99.90
11112;DHT22;5609;49.466;8.468;2023-01-10T02:56:06;6.60;99.90
11112;DHT22;5609;49.466;8.468;2023-01-10T03:01:40;6.50;99.90
11112;DHT22;5609;49.466;8.468;2023-01-10T03:04:18;6.70;99.90
11112;DHT22;5609;49.466;8.468;2023-01-10T03:06:53;6.60;99.90
11112;DHT22;5609;49.466;8.468;2023-01-10T03:09:28;6.60;99.90
11112;DHT22;5609;49.466;8.468;2023-01-10T03:12:01;6.60;99.90
11112;DHT22;5609;49.466;8.468;2023-01-10T03:14:33;6.60;99.90
11112;DHT22;5609;49.466;8.468;2023-01-10T03:17:06;6.60;99.90
11112;DHT22;5609;49.466;8.468;2023-01-10T03:19:41;6.60;99.90
11112;DHT22;5609;49.466;8.468;2023-01-10T03:22:09;6.60;99.90
11112;DHT22;5609;49.466;8.468;2023-01-10T03:24:39;6.50;99.90
11112;DHT22;5609;49.466;8.468;2023-01-10T03:27:10;6.40;99.90
11112;DHT22;5609;49.466;8.468;2023-01-10T03:29:47;6.40;99.90
11112;DHT22;5609;49.466;8.468;2023-01-10T03:32:17;6.40;99.90
11112;DHT22;5609;49.466;8.468;2023-01-10T03:34:47;6.40;99.90
11112;DHT22;5609;49.466;8.468;2023-01-10T03:37:19;6.40;99.90
11112;DHT22;5609;49.466;8.468;2023-01-10T03:39:53;6.50;99.90
11112;DHT22;5609;49.466;8.468;2023-01-10T03:42:28;6.60;99.90
11112;DHT22;5609;49.466;8.468;2023-01-10T03:45:22;6.50;99.90
11112;DHT22;5609;49.466;8.468;2023-01-10T03:47:50;6.50;99.90
11112;DHT22;5609;49.466;8.468;2023-01-10T03:50:22;6.50;99.90
11112;DHT22;5609;49.466;8.468;2023-01-10T03:52:50;6.50;99.90
11112;DHT22;5609;49.466;8.468;2023-01-10T03:55:20;6.50;99.90
11112;DHT22;5609;49.466;8.468;2023-01-10T03:57:48;6.50;99.90
11112;DHT22;5609;49.466;8.468;2023-01-10T04:00:15;6.50;99.90
11112;DHT22;5609;49.466;8.468;2023-01-10T04:02:42;6.50;99.90
11112;DHT22;5609;49.466;8.468;2023-01-10T04:05:10;6.50;99.90
11112;DHT22;5609;49.466;8.468;2023-01-10T04:07:38;6.40;99.90
11112;DHT22;5609;49.466;8.468;2023-01-10T04:10:06;6.50;99.90
11112;DHT22;5609;49.466;8.468;2023-01-10T04:12:32;6.40;99.90
11112;DHT22;5609;49.466;8.468;2023-01-10T04:14:59;6.40;99.90
11112;DHT22;5609;49.466;8.468;2023-01-10T04:17:27;6.40;99.90
11112;DHT22;5609;49.466;8.468;2023-01-10T04:19:54;6.50;99.90
11112;DHT22;5609;49.466;8.468;2023-01-10T04:22:20;6.50;99.90
11112;DHT22;5609;49.466;8.468;2023-01-10T04:24:49;6.50;99.90
11112;DHT22;5609;49.466;8.468;2023-01-10T04:27:16;6.50;99.90
11112;DHT22;5609;49.466;8.468;2023-01-10T04:29:43;6.50;99.90
11112;DHT22;5609;49.466;8.468;2023-01-10T04:32:10;6.50;99.90
11112;DHT22;5609;49.466;8.468;2023-01-10T04:34:37;6.50;99.90
11112;DHT22;5609;49.466;8.468;2023-01-10T04:37:04;6.40;99.90
11112;DHT22;5609;49.466;8.468;2023-01-10T04:39:30;6.40;99.90
11112;DHT22;5609;49.466;8.468;2023-01-10T04:41:58;6.50;99.90
11112;DHT22;5609;49.466;8.468;2023-01-10T04:44:25;6.40;99.90
11112;DHT22;5609;49.466;8.468;2023-01-10T04:46:52;6.40;99.90
11112;DHT22;5609;49.466;8.468;2023-01-10T04:49:19;6.40;99.90
11112;DHT22;5609;49.466;8.468;2023-01-10T04:51:45;6.30;99.90
11112;DHT22;5609;49.466;8.468;2023-01-10T04:54:12;6.20;99.90
11112;DHT22;5609;49.466;8.468;2023-01-10T04:56:39;6.20;99.90
11112;DHT22;5609;49.466;8.468;2023-01-10T04:59:08;6.10;99.90
11112;DHT22;5609;49.466;8.468;2023-01-10T05:01:35;6.10;99.90
11112;DHT22;5609;49.466;8.468;2023-01-10T05:04:04;6.10;99.90
11112;DHT22;5609;49.466;8.468;2023-01-10T05:06:32;6.10;99.90
11112;DHT22;5609;49.466;8.468;2023-01-10T05:08:59;6.00;99.90
11112;DHT22;5609;49.466;8.468;2023-01-10T05:11:25;5.90;99.90
11112;DHT22;5609;49.466;8.468;2023-01-10T05:13:52;6.00;99.90
11112;DHT22;5609;49.466;8.468;2023-01-10T05:16:20;6.00;99.90
11112;DHT22;5609;49.466;8.468;2023-01-10T05:18:47;6.00;99.90
11112;DHT22;5609;49.466;8.468;2023-01-10T05:21:16;5.90;99.90
11112;DHT22;5609;49.466;8.468;2023-01-10T05:23:43;6.00;99.90
11112;DHT22;5609;49.466;8.468;2023-01-10T05:26:11;5.90;99.90
11112;DHT22;5609;49.466;8.468;2023-01-10T05:28:38;5.90;99.90
11112;DHT22;5609;49.466;8.468;2023-01-10T05:31:05;5.90;99.90
11112;DHT22;5609;49.466;8.468;2023-01-10T05:33:34;6.00;99.90
11112;DHT22;5609;49.466;8.468;2023-01-10T05:36:01;6.00;99.90
11112;DHT22;5609;49.466;8.468;2023-01-10T05:38:28;6.10;99.90
11112;DHT22;5609;49.466;8.468;2023-01-10T05:40:56;6.10;99.90
11112;DHT22;5609;49.466;8.468;2023-01-10T05:43:23;6.10;99.90
11112;DHT22;5609;49.466;8.468;2023-01-10T05:45:50;6.10;99.90
11112;DHT22;5609;49.466;8.468;2023-01-10T05:48:17;6.20;99.90
11112;DHT22;5609;49.466;8.468;2023-01-10T05:50:48;6.20;99.90
11112;DHT22;5609;49.466;8.468;2023-01-10T05:53:15;6.30;99.90
11112;DHT22;5609;49.466;8.468;2023-01-10T05:55:42;6.30;99.90
11112;DHT22;5609;49.466;8.468;2023-01-10T05:58:09;6.30;99.90
11112;DHT22;5609;49.466;8.468;2023-01-10T06:00:36;6.40;99.90
11112;DHT22;5609;49.466;8.468;2023-01-10T06:03:04;6.30;99.90
11112;DHT22;5609;49.466;8.468;2023-01-10T06:05:30;6.30;99.90
11112;DHT22;5609;49.466;8.468;2023-01-10T06:07:58;6.30;99.90
11112;DHT22;5609;49.466;8.468;2023-01-10T06:10:25;6.20;99.90
11112;DHT22;5609;49.466;8.468;2023-01-10T06:12:52;6.20;99.90
11112;DHT22;5609;49.466;8.468;2023-01-10T06:15:19;6.30;99.90
11112;DHT22;5609;49.466;8.468;2023-01-10T06:17:45;6.40;99.90
11112;DHT22;5609;49.466;8.468;2023-01-10T06:20:12;6.30;99.90
11112;DHT22;5609;49.466;8.468;2023-01-10T06:22:39;6.40;99.90
11112;DHT22;5609;49.466;8.468;2023-01-10T06:25:10;6.40;99.90
11112;DHT22;5609;49.466;8.468;2023-01-10T06:27:38;6.40;99.90
11112;DHT22;5609;49.466;8.468;2023-01-10T06:30:06;6.50;99.90
11112;DHT22;5609;49.466;8.468;2023-01-10T06:32:33;6.40;99.90
11112;DHT22;5609;49.466;8.468;2023-01-10T06:35:00;6.50;99.90
11112;DHT22;5609;49.466;8.468;2023-01-10T06:37:27;6.50;99.90
11112;DHT22;5609;49.466;8.468;2023-01-10T06:39:54;6.50;99.90
11112;DHT22;5609;49.466;8.468;2023-01-10T06:42:22;6.50;99.90
11112;DHT22;5609;49.466;8.468;2023-01-10T06:44:49;6.50;99.90
11112;DHT22;5609;49.466;8.468;2023-01-10T06:47:15;6.50;99.90
11112;DHT22;5609;49.466;8.468;2023-01-10T06:49:42;6.40;99.90
11112;DHT22;5609;49.466;8.468;2023-01-10T06:52:09;6.50;99.90
11112;DHT22;5609;49.466;8.468;2023-01-10T06:54:35;6.50;99.90
11112;DHT22;5609;49.466;8.468;2023-01-10T06:57:02;6.40;99.90
11112;DHT22;5609;49.466;8.468;2023-01-10T06:59:31;6.50;99.90
11112;DHT22;5609;49.466;8.468;2023-01-10T07:01:58;6.50;99.90
11112;DHT22;5609;49.466;8.468;2023-01-10T07:04:25;6.40;99.90
11112;DHT22;5609;49.466;8.468;2023-01-10T07:06:52;6.30;99.90
11112;DHT22;5609;49.466;8.468;2023-01-10T07:09:19;6.40;99.90
11112;DHT22;5609;49.466;8.468;2023-01-10T07:11:45;6.30;99.90
11112;DHT22;5609;49.466;8.468;2023-01-10T07:14:12;6.30;99.90
11112;DHT22;5609;49.466;8.468;2023-01-10T07:16:40;6.30;99.90
11112;DHT22;5609;49.466;8.468;2023-01-10T07:19:07;6.30;99.90
11112;DHT22;5609;49.466;8.468;2023-01-10T07:21:33;6.30;99.90
11112;DHT22;5609;49.466;8.468;2023-01-10T07:24:00;6.20;99.90
11112;DHT22;5609;49.466;8.468;2023-01-10T07:26:27;6.20;99.90
11112;DHT22;5609;49.466;8.468;2023-01-10T07:28:54;6.30;99.90
11112;DHT22;5609;49.466;8.468;2023-01-10T07:31:21;6.30;99.90
11112;DHT22;5609;49.466;8.468;2023-01-10T07:33:49;6.20;99.90
11112;DHT22;5609;49.466;8.468;2023-01-10T07:36:16;6.20;99.90
11112;DHT22;5609;49.466;8.468;2023-01-10T07:38:43;6.20;99.90
11112;DHT22;5609;49.466;8.468;2023-01-10T07:41:10;6.10;99.90
11112;DHT22;5609;49.466;8.468;2023-01-10T07:43:36;6.10;99.90
11112;DHT22;5609;49.466;8.468;2023-01-10T07:46:05;6.10;99.90
11112;DHT22;5609;49.466;8.468;2023-01-10T07:48:34;6.10;99.90
11112;DHT22;5609;49.466;8.468;2023-01-10T07:51:02;6.10;99.90
11112;DHT22;5609;49.466;8.468;2023-01-10T07:53:30;6.20;99.90
11112;DHT22;5609;49.466;8.468;2023-01-10T07:55:58;6.20;99.90
11112;DHT22;5609;49.466;8.468;2023-01-10T07:58:25;6.20;99.90
11112;DHT22;5609;49.466;8.468;2023-01-10T08:00:56;6.20;99.90
11112;DHT22;5609;49.466;8.468;2023-01-10T08:03:23;6.20;99.90
11112;DHT22;5609;49.466;8.468;2023-01-10T08:05:56;6.20;99.90
11112;DHT22;5609;49.466;8.468;2023-01-10T08:08:25;6.30;99.90
11112;DHT22;5609;49.466;8.468;2023-01-10T08:10:51;6.30;99.90
11112;DHT22;5609;49.466;8.468;2023-01-10T08:13:18;6.30;99.90
11112;DHT22;5609;49.466;8.468;2023-01-10T08:15:45;6.30;99.90
11112;DHT22;5609;49.466;8.468;2023-01-10T08:18:15;6.30;99.90
11112;DHT22;5609;49.466;8.468;2023-01-10T08:20:41;6.30;99.90
11112;DHT22;5609;49.466;8.468;2023-01-10T08:23:08;6.30;99.90
11112;DHT22;5609;49.466;8.468;2023-01-10T08:25:36;6.30;99.90
11112;DHT22;5609;49.466;8.468;2023-01-10T08:28:03;6.30;99.90
11112;DHT22;5609;49.466;8.468;2023-01-10T08:30:30;6.30;99.90
11112;DHT22;5609;49.466;8.468;2023-01-10T08:32:56;6.30;99.90
11112;DHT22;5609;49.466;8.468;2023-01-10T08:35:23;6.20;99.90
11112;DHT22;5609;49.466;8.468;2023-01-10T08:37:50;6.30;99.90
11112;DHT22;5609;49.466;8.468;2023-01-10T08:40:17;6.30;99.90
11112;DHT22;5609;49.466;8.468;2023-01-10T08:42:45;6.30;99.90
11112;DHT22;5609;49.466;8.468;2023-01-10T08:45:12;6.40;99.90
11112;DHT22;5609;49.466;8.468;2023-01-10T08:47:39;6.40;99.90
11112;DHT22;5609;49.466;8.468;2023-01-10T08:50:06;6.40;99.90
11112;DHT22;5609;49.466;8.468;2023-01-10T08:52:33;6.40;99.90
11112;DHT22;5609;49.466;8.468;2023-01-10T08:55:00;6.50;99.90
11112;DHT22;5609;49.466;8.468;2023-01-10T08:57:26;6.60;99.90
11112;DHT22;5609;49.466;8.468;2023-01-10T08:59:54;6.60;99.90
11112;DHT22;5609;49.466;8.468;2023-01-10T09:02:21;6.70;99.90
11112;DHT22;5609;49.466;8.468;2023-01-10T09:04:48;6.70;99.90
11112;DHT22;5609;49.466;8.468;2023-01-10T09:07:15;6.70;99.90
11112;DHT22;5609;49.466;8.468;2023-01-10T09:09:41;6.70;99.90
11112;DHT22;5609;49.466;8.468;2023-01-10T09:12:09;6.80;99.90
11112;DHT22;5609;49.466;8.468;2023-01-10T09:14:49;6.80;99.90
11112;DHT22;5609;49.466;8.468;2023-01-10T09:17:17;6.90;99.90
11112;DHT22;5609;49.466;8.468;2023-01-10T09:19:44;6.90;99.90
11112;DHT22;5609;49.466;8.468;2023-01-10T09:22:11;6.90;99.90
11112;DHT22;5609;49.466;8.468;2023-01-10T09:24:38;6.90;99.90
11112;DHT22;5609;49.466;8.468;2023-01-10T09:27:05;6.90;99.90
11112;DHT22;5609;49.466;8.468;2023-01-10T09:29:31;7.00;99.90
11112;DHT22;5609;49.466;8.468;2023-01-10T09:31:58;6.90;99.90
11112;DHT22;5609;49.466;8.468;2023-01-10T09:34:26;6.90;99.90
11112;DHT22;5609;49.466;8.468;2023-01-10T09:36:53;7.00;99.90
11112;DHT22;5609;49.466;8.468;2023-01-10T09:39:20;7.00;99.90
11112;DHT22;5609;49.466;8.468;2023-01-10T09:42:00;7.00;99.90
11112;DHT22;5609;49.466;8.468;2023-01-10T09:44:38;7.00;99.90
11112;DHT22;5609;49.466;8.468;2023-01-10T09:47:17;7.00;99.90
11112;DHT22;5609;49.466;8.468;2023-01-10T09:49:54;7.00;99.90
11112;DHT22;5609;49.466;8.468;2023-01-10T09:52:29;7.00;99.90
11112;DHT22;5609;49.466;8.468;2023-01-10T09:54:57;7.10;99.90
11112;DHT22;5609;49.466;8.468;2023-01-10T09:57:26;7.10;99.90
11112;DHT22;5609;49.466;8.468;2023-01-10T09:59:52;7.10;99.90
11112;DHT22;5609;49.466;8.468;2023-01-10T10:02:25;7.10;99.90
11112;DHT22;5609;49.466;8.468;2023-01-10T10:05:12;7.10;99.90
11112;DHT22;5609;49.466;8.468;2023-01-10T10:07:42;7.10;99.90
11112;DHT22;5609;49.466;8.468;2023-01-10T10:10:14;7.20;99.90
11112;DHT22;5609;49.466;8.468;2023-01-10T10:12:48;7.20;99.90
11112;DHT22;5609;49.466;8.468;2023-01-10T10:15:30;7.30;99.90
11112;DHT22;5609;49.466;8.468;2023-01-10T10:18:09;7.40;99.90
11112;DHT22;5609;49.466;8.468;2023-01-10T10:20:56;7.50;99.90
11112;DHT22;5609;49.466;8.468;2023-01-10T10:23:47;7.50;99.90
11112;DHT22;5609;49.466;8.468;2023-01-10T10:26:25;7.50;99.90
11112;DHT22;5609;49.466;8.468;2023-01-10T10:32:18;7.50;99.90
11112;DHT22;5609;49.466;8.468;2023-01-10T10:34:49;7.60;99.90
11112;DHT22;5609;49.466;8.468;2023-01-10T10:37:22;7.60;99.90
11112;DHT22;5609;49.466;8.468;2023-01-10T10:39:55;7.60;99.90
11112;DHT22;5609;49.466;8.468;2023-01-10T10:42:27;7.70;99.90
11112;DHT22;5609;49.466;8.468;2023-01-10T10:44:59;7.70;99.90
11112;DHT22;5609;49.466;8.468;2023-01-10T10:47:32;7.80;99.90
11112;DHT22;5609;49.466;8.468;2023-01-10T10:50:04;8.10;99.90
11112;DHT22;5609;49.466;8.468;2023-01-10T10:52:35;8.20;99.90
11112;DHT22;5609;49.466;8.468;2023-01-10T10:55:03;8.30;99.90
11112;DHT22;5609;49.466;8.468;2023-01-10T10:57:32;8.30;99.90
11112;DHT22;5609;49.466;8.468;2023-01-10T11:00:01;8.40;99.90
11112;DHT22;5609;49.466;8.468;2023-01-10T11:02:30;8.30;99.90
11112;DHT22;5609;49.466;8.468;2023-01-10T11:04:59;8.20;99.90
11112;DHT22;5609;49.466;8.468;2023-01-10T11:07:30;8.20;99.90
11112;DHT22;5609;49.466;8.468;2023-01-10T11:09:59;8.40;99.90
11112;DHT22;5609;49.466;8.468;2023-01-10T11:12:44;8.40;99.90
11112;DHT22;5609;49.466;8.468;2023-01-10T11:15:36;8.40;99.90
11112;DHT22;5609;49.466;8.468;2023-01-10T11:18:05;8.50;99.90
11112;DHT22;5609;49.466;8.468;2023-01-10T11:20:33;8.50;99.90
11112;DHT22;5609;49.466;8.468;2023-01-10T11:23:00;8.60;99.90
11112;DHT22;5609;49.466;8.468;2023-01-10T11:25:28;8.70;99.90
11112;DHT22;5609;49.466;8.468;2023-01-10T11:27:57;9.00;99.90
11112;DHT22;5609;49.466;8.468;2023-01-10T11:30:27;9.10;99.90
11112;DHT22;5609;49.466;8.468;2023-01-10T11:32:58;9.20;99.90
11112;DHT22;5609;49.466;8.468;2023-01-10T11:35:27;9.20;99.90
11112;DHT22;5609;49.466;8.468;2023-01-10T11:38:00;9.20;99.90
11112;DHT22;5609;49.466;8.468;2023-01-10T11:40:29;9.20;99.90
11112;DHT22;5609;49.466;8.468;2023-01-10T11:42:57;9.20;99.90
11112;DHT22;5609;49.466;8.468;2023-01-10T11:45:30;9.40;99.90
11112;DHT22;5609;49.466;8.468;2023-01-10T11:48:01;9.60;99.90
11112;DHT22;5609;49.466;8.468;2023-01-10T11:50:34;9.60;99.90
11112;DHT22;5609;49.466;8.468;2023-01-10T11:53:03;9.60;99.90
11112;DHT22;5609;49.466;8.468;2023-01-10T11:55:35;9.30;99.90
11112;DHT22;5609;49.466;8.468;2023-01-10T11:58:04;9.20;99.90
11112;DHT22;5609;49.466;8.468;2023-01-10T12:00:39;9.10;99.90
11112;DHT22;5609;49.466;8.468;2023-01-10T12:03:20;8.90;99.90
11112;DHT22;5609;49.466;8.468;2023-01-10T12:05:53;8.80;99.90
11112;DHT22;5609;49.466;8.468;2023-01-10T12:08:24;8.70;99.90
11112;DHT22;5609;49.466;8.468;2023-01-10T12:10:58;8.70;99.90
11112;DHT22;5609;49.466;8.468;2023-01-10T12:13:27;8.60;99.90
11112;DHT22;5609;49.466;8.468;2023-01-10T12:16:16;8.60;99.90
11112;DHT22;5609;49.466;8.468;2023-01-10T12:18:44;8.60;99.90
11112;DHT22;5609;49.466;8.468;2023-01-10T12:21:13;8.70;99.90
11112;DHT22;5609;49.466;8.468;2023-01-10T12:23:44;8.80;99.90
11112;DHT22;5609;49.466;8.468;2023-01-10T12:26:13;8.80;99.90
11112;DHT22;5609;49.466;8.468;2023-01-10T12:28:42;9.00;99.90
11112;DHT22;5609;49.466;8.468;2023-01-10T12:31:12;9.00;99.90
11112;DHT22;5609;49.466;8.468;2023-01-10T12:33:42;9.00;99.90
11112;DHT22;5609;49.466;8.468;2023-01-10T12:36:18;9.00;99.90
11112;DHT22;5609;49.466;8.468;2023-01-10T12:38:53;9.00;99.90
11112;DHT22;5609;49.466;8.468;2023-01-10T12:41:37;9.00;99.90
11112;DHT22;5609;49.466;8.468;2023-01-10T12:44:29;9.10;99.90
11112;DHT22;5609;49.466;8.468;2023-01-10T12:47:01;9.10;99.90
11112;DHT22;5609;49.466;8.468;2023-01-10T12:49:31;9.20;99.90
11112;DHT22;5609;49.466;8.468;2023-01-10T12:52:03;9.20;99.90
11112;DHT22;5609;49.466;8.468;2023-01-10T12:54:31;9.30;99.90
11112;DHT22;5609;49.466;8.468;2023-01-10T12:57:02;9.20;99.90
11112;DHT22;5609;49.466;8.468;2023-01-10T12:59:32;9.10;99.90
11112;DHT22;5609;49.466;8.468;2023-01-10T13:02:05;9.10;99.90
11112;DHT22;5609;49.466;8.468;2023-01-10T13:04:34;9.00;99.90
11112;DHT22;5609;49.466;8.468;2023-01-10T13:07:02;9.00;99.90
11112;DHT22;5609;49.466;8.468;2023-01-10T13:09:30;9.00;99.90
11112;DHT22;5609;49.466;8.468;2023-01-10T13:12:02;9.10;99.90
11112;DHT22;5609;49.466;8.468;2023-01-10T13:14:35;8.90;99.90
11112;DHT22;5609;49.466;8.468;2023-01-10T13:17:09;8.70;99.90
11112;DHT22;5609;49.466;8.468;2023-01-10T13:19:42;8.80;99.90
11112;DHT22;5609;49.466;8.468;2023-01-10T13:22:19;8.70;99.90
11112;DHT22;5609;49.466;8.468;2023-01-10T13:24:57;8.80;99.90
11112;DHT22;5609;49.466;8.468;2023-01-10T13:27:29;8.90;99.90
11112;DHT22;5609;49.466;8.468;2023-01-10T13:29:56;8.90;99.90
11112;DHT22;5609;49.466;8.468;2023-01-10T13:32:26;8.80;99.90
11112;DHT22;5609;49.466;8.468;2023-01-10T13:34:53;9.10;99.90
11112;DHT22;5609;49.466;8.468;2023-01-10T13:37:22;9.50;99.90
11112;DHT22;5609;49.466;8.468;2023-01-10T13:39:53;9.60;99.90
11112;DHT22;5609;49.466;8.468;2023-01-10T13:42:30;9.60;99.90
11112;DHT22;5609;49.466;8.468;2023-01-10T13:45:25;9.40;99.90
11112;DHT22;5609;49.466;8.468;2023-01-10T13:48:03;9.20;99.90
11112;DHT22;5609;49.466;8.468;2023-01-10T13:50:51;8.90;99.90
11112;DHT22;5609;49.466;8.468;2023-01-10T13:53:40;8.80;99.90
11112;DHT22;5609;49.466;8.468;2023-01-10T13:56:30;8.70;99.90
11112;DHT22;5609;49.466;8.468;2023-01-10T13:58:58;8.60;99.90
11112;DHT22;5609;49.466;8.468;2023-01-10T14:01:43;8.50;99.90
11112;DHT22;5609;49.466;8.468;2023-01-10T14:04:29;8.50;99.90
11112;DHT22;5609;49.466;8.468;2023-01-10T14:06:58;8.50;99.90
11112;DHT22;5609;49.466;8.468;2023-01-10T14:09:39;8.40;99.90
11112;DHT22;5609;49.466;8.468;2023-01-10T14:12:18;8.40;99.90
11112;DHT22;5609;49.466;8.468;2023-01-10T14:14:53;8.40;99.90
11112;DHT22;5609;49.466;8.468;2023-01-10T14:17:22;8.50;99.90
11112;DHT22;5609;49.466;8.468;2023-01-10T14:20:14;8.50;99.90
11112;DHT22;5609;49.466;8.468;2023-01-10T14:23:00;8.60;99.90
11112;DHT22;5609;49.466;8.468;2023-01-10T14:25:27;8.60;99.90
11112;DHT22;5609;49.466;8.468;2023-01-10T14:27:55;8.60;99.90
11112;DHT22;5609;49.466;8.468;2023-01-10T14:30:28;8.50;99.90
11112;DHT22;5609;49.466;8.468;2023-01-10T14:33:00;8.40;99.90
11112;DHT22;5609;49.466;8.468;2023-01-10T14:35:32;8.40;99.90
11112;DHT22;5609;49.466;8.468;2023-01-10T14:38:01;8.40;99.90
11112;DHT22;5609;49.466;8.468;2023-01-10T14:40:33;8.30;99.90
11112;DHT22;5609;49.466;8.468;2023-01-10T14:43:04;8.30;99.90
11112;DHT22;5609;49.466;8.468;2023-01-10T14:45:42;8.20;99.90
11112;DHT22;5609;49.466;8.468;2023-01-10T14:48:22;8.20;99.90
11112;DHT22;5609;49.466;8.468;2023-01-10T14:50:51;8.20;99.90
11112;DHT22;5609;49.466;8.468;2023-01-10T14:53:25;8.20;99.90
11112;DHT22;5609;49.466;8.468;2023-01-10T14:55:53;8.10;99.90
11112;DHT22;5609;49.466;8.468;2023-01-10T14:58:19;8.10;99.90
11112;DHT22;5609;49.466;8.468;2023-01-10T15:00:49;8.10;99.90
11112;DHT22;5609;49.466;8.468;2023-01-10T15:03:18;8.00;99.90
11112;DHT22;5609;49.466;8.468;2023-01-10T15:05:47;8.10;99.90
11112;DHT22;5609;49.466;8.468;2023-01-10T15:08:18;8.10;99.90
11112;DHT22;5609;49.466;8.468;2023-01-10T15:10:46;8.10;99.90
11112;DHT22;5609;49.466;8.468;2023-01-10T15:13:18;8.30;99.90
11112;DHT22;5609;49.466;8.468;2023-01-10T15:15:49;8.20;99.90
11112;DHT22;5609;49.466;8.468;2023-01-10T15:18:28;8.10;99.90
11112;DHT22;5609;49.466;8.468;2023-01-10T15:20:58;8.10;99.90
11112;DHT22;5609;49.466;8.468;2023-01-10T15:23:32;8.00;99.90
11112;DHT22;5609;49.466;8.468;2023-01-10T15:26:01;7.90;99.90
11112;DHT22;5609;49.466;8.468;2023-01-10T15:28:28;7.80;99.90
11112;DHT22;5609;49.466;8.468;2023-01-10T15:30:57;7.80;99.90
11112;DHT22;5609;49.466;8.468;2023-01-10T15:33:27;7.70;99.90
11112;DHT22;5609;49.466;8.468;2023-01-10T15:35:55;7.60;99.90
11112;DHT22;5609;49.466;8.468;2023-01-10T15:38:23;7.60;99.90
11112;DHT22;5609;49.466;8.468;2023-01-10T15:40:56;7.50;99.90
11112;DHT22;5609;49.466;8.468;2023-01-10T15:43:25;7.50;99.90
11112;DHT22;5609;49.466;8.468;2023-01-10T15:45:54;7.40;99.90
11112;DHT22;5609;49.466;8.468;2023-01-10T15:48:29;7.40;99.90
11112;DHT22;5609;49.466;8.468;2023-01-10T15:50:57;7.40;99.90
11112;DHT22;5609;49.466;8.468;2023-01-10T15:53:53;7.40;99.90
11112;DHT22;5609;49.466;8.468;2023-01-10T15:56:25;7.40;99.90
11112;DHT22;5609;49.466;8.468;2023-01-10T15:58:53;7.30;99.90
11112;DHT22;5609;49.466;8.468;2023-01-10T16:01:20;7.30;99.90
11112;DHT22;5609;49.466;8.468;2023-01-10T16:03:49;7.30;99.90
11112;DHT22;5609;49.466;8.468;2023-01-10T16:06:23;7.30;99.90
11112;DHT22;5609;49.466;8.468;2023-01-10T16:08:52;7.30;99.90
11112;DHT22;5609;49.466;8.468;2023-01-10T16:11:22;7.30;99.90
11112;DHT22;5609;49.466;8.468;2023-01-10T16:14:03;7.30;99.90
11112;DHT22;5609;49.466;8.468;2023-01-10T16:16:30;7.30;99.90
11112;DHT22;5609;49.466;8.468;2023-01-10T16:18:58;7.20;99.90
11112;DHT22;5609;49.466;8.468;2023-01-10T16:21:26;7.20;99.90
11112;DHT22;5609;49.466;8.468;2023-01-10T16:23:54;7.30;99.90
11112;DHT22;5609;49.466;8.468;2023-01-10T16:26:21;7.20;99.90
11112;DHT22;5609;49.466;8.468;2023-01-10T16:28:48;7.20;99.90
11112;DHT22;5609;49.466;8.468;2023-01-10T16:31:15;7.20;99.90